sensor_id;sensor_type;location;lat;lon;timestamp;pressure;altitude;pressure_sealevel;temperature;humidity
59168;BME280;44948;55.046;73.266;2023-04-03T00:01:26;101962.94;;;-3.22;60.27
59168;BME280;44948;55.046;73.266;2023-04-03T00:04:28;101966.34;;;-3.23;59.88
59168;BME280;44948;55.046;73.266;2023-04-03T00:07:31;101954.38;;;-3.22;60.02
59168;BME280;44948;55.046;73.266;2023-04-03T00:10:34;101959.47;;;-3.25;60.18
59168;BME280;44948;55.046;73.266;2023-04-03T00:13:43;101957.81;;;-3.20;59.76
59168;BME280;44948;55.046;73.266;2023-04-03T00:16:45;101957.03;;;-3.18;59.76
59168;BME280;44948;55.046;73.266;2023-04-03T00:19:48;101958.66;;;-3.21;59.88
59168;BME280;44948;55.046;73.266;2023-04-03T00:22:57;101957.78;;;-3.23;59.92
59168;BME280;44948;55.046;73.266;2023-04-03T00:26:02;101956.06;;;-3.26;59.90
59168;BME280;44948;55.046;73.266;2023-04-03T00:29:07;101960.31;;;-3.26;59.99
59168;BME280;44948;55.046;73.266;2023-04-03T00:32:09;101961.19;;;-3.24;59.97
59168;BME280;44948;55.046;73.266;2023-04-03T00:35:12;101968.88;;;-3.26;59.99
59168;BME280;44948;55.046;73.266;2023-04-03T00:38:17;101969.75;;;-3.25;59.85
59168;BME280;44948;55.046;73.266;2023-04-03T00:41:20;101965.50;;;-3.22;60.25
59168;BME280;44948;55.046;73.266;2023-04-03T00:47:46;101963.78;;;-3.23;59.93
59168;BME280;44948;55.046;73.266;2023-04-03T00:50:48;101956.91;;;-3.25;59.94
59168;BME280;44948;55.046;73.266;2023-04-03T00:54:01;101961.22;;;-3.21;60.05
59168;BME280;44948;55.046;73.266;2023-04-03T00:57:15;101961.22;;;-3.21;60.22
59168;BME280;44948;55.046;73.266;2023-04-03T01:00:20;101969.03;;;-3.15;60.12
59168;BME280;44948;55.046;73.266;2023-04-03T01:03:24;101947.31;;;-3.38;59.93
59168;BME280;44948;55.046;73.266;2023-04-03T01:06:37;101963.06;;;-3.14;60.04
59168;BME280;44948;55.046;73.266;2023-04-03T01:09:57;101972.88;;;-2.78;59.73
59168;BME280;44948;55.046;73.266;2023-04-03T01:13:00;101980.13;;;-2.42;59.05
59168;BME280;44948;55.046;73.266;2023-04-03T01:16:05;101975.25;;;-2.13;58.38
59168;BME280;44948;55.046;73.266;2023-04-03T01:19:12;101980.56;;;-1.93;57.90
59168;BME280;44948;55.046;73.266;2023-04-03T01:22:26;101987.50;;;-1.83;57.55
59168;BME280;44948;55.046;73.266;2023-04-03T01:25:35;101971.25;;;-1.76;57.96
59168;BME280;44948;55.046;73.266;2023-04-03T01:28:38;101978.09;;;-1.75;57.89
59168;BME280;44948;55.046;73.266;2023-04-03T01:31:53;101985.94;;;-1.59;57.36
59168;BME280;44948;55.046;73.266;2023-04-03T01:34:57;101962.81;;;-1.53;57.28
59168;BME280;44948;55.046;73.266;2023-04-03T01:37:59;101978.34;;;-1.38;57.16
59168;BME280;44948;55.046;73.266;2023-04-03T01:41:02;101970.66;;;-1.31;57.08
59168;BME280;44948;55.046;73.266;2023-04-03T01:44:05;101954.38;;;-1.28;56.89
59168;BME280;44948;55.046;73.266;2023-04-03T01:47:17;101976.72;;;-1.18;56.78
59168;BME280;44948;55.046;73.266;2023-04-03T01:50:20;101981.03;;;-1.15;56.85
59168;BME280;44948;55.046;73.266;2023-04-03T01:53:24;101981.06;;;-1.12;56.64
59168;BME280;44948;55.046;73.266;2023-04-03T01:56:27;101964.75;;;-1.07;56.61
59168;BME280;44948;55.046;73.266;2023-04-03T01:59:32;101961.38;;;-0.90;56.48
59168;BME280;44948;55.046;73.266;2023-04-03T02:02:44;101975.19;;;-0.76;56.20
59168;BME280;44948;55.046;73.266;2023-04-03T02:05:47;101978.66;;;-0.62;55.89
59168;BME280;44948;55.046;73.266;2023-04-03T02:09:00;101983.00;;;-0.43;55.20
59168;BME280;44948;55.046;73.266;2023-04-03T02:12:07;101979.59;;;-0.06;56.11
59168;BME280;44948;55.046;73.266;2023-04-03T02:15:10;101983.00;;;0.37;54.89
59168;BME280;44948;55.046;73.266;2023-04-03T02:18:13;101977.72;;;0.79;53.99
59168;BME280;44948;55.046;73.266;2023-04-03T02:21:15;101969.78;;;1.25;53.75
59168;BME280;44948;55.046;73.266;2023-04-03T02:24:30;101982.56;;;1.50;52.51
59168;BME280;44948;55.046;73.266;2023-04-03T02:27:34;101982.34;;;1.82;51.58
59168;BME280;44948;55.046;73.266;2023-04-03T02:30:37;101981.50;;;1.81;50.38
59168;BME280;44948;55.046;73.266;2023-04-03T02:33:40;101965.84;;;2.03;50.49
59168;BME280;44948;55.046;73.266;2023-04-03T02:36:45;101975.00;;;2.36;50.28
59168;BME280;44948;55.046;73.266;2023-04-03T02:39:49;101965.28;;;2.57;49.46
59168;BME280;44948;55.046;73.266;2023-04-03T02:42:51;101974.50;;;2.81;49.29
59168;BME280;44948;55.046;73.266;2023-04-03T02:45:54;101967.16;;;3.17;49.71
59168;BME280;44948;55.046;73.266;2023-04-03T02:49:04;101969.38;;;3.46;48.72
59168;BME280;44948;55.046;73.266;2023-04-03T02:52:07;101969.69;;;3.81;47.70
59168;BME280;44948;55.046;73.266;2023-04-03T02:55:13;101967.81;;;3.91;46.65
59168;BME280;44948;55.046;73.266;2023-04-03T02:58:17;101971.00;;;4.08;47.28
59168;BME280;44948;55.046;73.266;2023-04-03T03:01:20;101959.22;;;4.38;46.30
59168;BME280;44948;55.046;73.266;2023-04-03T03:04:27;101964.34;;;4.41;45.52
59168;BME280;44948;55.046;73.266;2023-04-03T03:07:29;101967.38;;;4.65;45.80
59168;BME280;44948;55.046;73.266;2023-04-03T03:10:32;101956.81;;;4.74;45.40
59168;BME280;44948;55.046;73.266;2023-04-03T03:13:35;101959.09;;;4.89;44.40
59168;BME280;44948;55.046;73.266;2023-04-03T03:16:40;101955.16;;;5.13;44.63
59168;BME280;44948;55.046;73.266;2023-04-03T03:19:43;101964.31;;;5.31;44.78
59168;BME280;44948;55.046;73.266;2023-04-03T03:22:45;101968.13;;;5.53;43.79
59168;BME280;44948;55.046;73.266;2023-04-03T03:25:48;101956.63;;;5.63;44.03
59168;BME280;44948;55.046;73.266;2023-04-03T03:28:55;101951.53;;;5.94;43.78
59168;BME280;44948;55.046;73.266;2023-04-03T03:31:58;101927.41;;;6.20;42.74
59168;BME280;44948;55.046;73.266;2023-04-03T03:35:01;101953.44;;;6.54;42.52
59168;BME280;44948;55.046;73.266;2023-04-03T03:38:03;101964.59;;;6.60;41.77
59168;BME280;44948;55.046;73.266;2023-04-03T03:41:07;101963.84;;;6.54;42.22
59168;BME280;44948;55.046;73.266;2023-04-03T03:44:10;101959.06;;;6.70;42.34
59168;BME280;44948;55.046;73.266;2023-04-03T03:47:13;101969.63;;;6.97;41.30
59168;BME280;44948;55.046;73.266;2023-04-03T03:50:15;101968.25;;;7.14;41.09
59168;BME280;44948;55.046;73.266;2023-04-03T03:53:20;101969.75;;;7.23;41.36
59168;BME280;44948;55.046;73.266;2023-04-03T03:56:26;101965.28;;;7.27;41.25
59168;BME280;44948;55.046;73.266;2023-04-03T03:59:29;101967.22;;;7.50;40.80
59168;BME280;44948;55.046;73.266;2023-04-03T04:02:32;101972.97;;;7.61;40.33
59168;BME280;44948;55.046;73.266;2023-04-03T04:05:34;101972.38;;;7.79;40.06
59168;BME280;44948;55.046;73.266;2023-04-03T04:08:39;101964.44;;;7.82;39.70
59168;BME280;44948;55.046;73.266;2023-04-03T04:11:44;101962.56;;;7.59;39.54
59168;BME280;44948;55.046;73.266;2023-04-03T04:14:50;101963.00;;;7.73;39.45
59168;BME280;44948;55.046;73.266;2023-04-03T04:17:52;101929.47;;;7.60;39.65
59168;BME280;44948;55.046;73.266;2023-04-03T04:20:58;101954.38;;;7.70;38.13
59168;BME280;44948;55.046;73.266;2023-04-03T04:24:08;101962.25;;;7.96;39.22
59168;BME280;44948;55.046;73.266;2023-04-03T04:27:11;101966.00;;;8.39;38.71
59168;BME280;44948;55.046;73.266;2023-04-03T04:30:14;101961.44;;;8.69;38.92
59168;BME280;44948;55.046;73.266;2023-04-03T04:33:17;101961.38;;;8.95;38.37
59168;BME280;44948;55.046;73.266;2023-04-03T04:36:26;101965.50;;;9.26;37.43
59168;BME280;44948;55.046;73.266;2023-04-03T04:39:28;101963.00;;;9.45;37.28
59168;BME280;44948;55.046;73.266;2023-04-03T04:42:33;101964.09;;;9.61;36.90
59168;BME280;44948;55.046;73.266;2023-04-03T04:45:46;101959.81;;;9.80;37.12
59168;BME280;44948;55.046;73.266;2023-04-03T04:48:52;101963.66;;;9.94;36.66
59168;BME280;44948;55.046;73.266;2023-04-03T04:51:56;101962.50;;;10.21;35.62
59168;BME280;44948;55.046;73.266;2023-04-03T04:55:12;101954.22;;;10.51;35.86
59168;BME280;44948;55.046;73.266;2023-04-03T04:58:15;101948.16;;;10.69;35.51
59168;BME280;44948;55.046;73.266;2023-04-03T05:01:18;101953.00;;;10.98;35.54
59168;BME280;44948;55.046;73.266;2023-04-03T05:04:29;101949.28;;;11.21;35.13
59168;BME280;44948;55.046;73.266;2023-04-03T05:07:38;101947.03;;;11.14;34.96
59168;BME280;44948;55.046;73.266;2023-04-03T05:10:41;101949.06;;;11.26;35.06
59168;BME280;44948;55.046;73.266;2023-04-03T05:13:44;101938.00;;;11.00;34.71
59168;BME280;44948;55.046;73.266;2023-04-03T05:16:56;101919.25;;;11.08;34.85
59168;BME280;44948;55.046;73.266;2023-04-03T05:20:04;101946.78;;;11.37;34.58
59168;BME280;44948;55.046;73.266;2023-04-03T05:23:06;101946.88;;;11.72;34.09
59168;BME280;44948;55.046;73.266;2023-04-03T05:26:19;101935.16;;;12.13;33.69
59168;BME280;44948;55.046;73.266;2023-04-03T05:29:24;101930.84;;;12.12;33.08
59168;BME280;44948;55.046;73.266;2023-04-03T05:32:27;101938.34;;;12.20;33.04
59168;BME280;44948;55.046;73.266;2023-04-03T05:35:42;101931.84;;;12.60;32.85
59168;BME280;44948;55.046;73.266;2023-04-03T05:38:56;101939.38;;;12.68;32.42
59168;BME280;44948;55.046;73.266;2023-04-03T05:41:59;101925.28;;;12.69;32.41
59168;BME280;44948;55.046;73.266;2023-04-03T05:45:03;101930.97;;;12.93;32.13
59168;BME280;44948;55.046;73.266;2023-04-03T05:48:06;101929.47;;;13.04;31.49
59168;BME280;44948;55.046;73.266;2023-04-03T05:51:18;101934.50;;;13.25;31.66
59168;BME280;44948;55.046;73.266;2023-04-03T05:54:28;101931.75;;;13.26;31.15
59168;BME280;44948;55.046;73.266;2023-04-03T05:57:51;101931.72;;;13.28;31.52
59168;BME280;44948;55.046;73.266;2023-04-03T06:00:54;101925.16;;;13.51;31.54
59168;BME280;44948;55.046;73.266;2023-04-03T06:03:57;101929.84;;;13.61;31.41
59168;BME280;44948;55.046;73.266;2023-04-03T06:07:00;101932.69;;;13.72;30.99
59168;BME280;44948;55.046;73.266;2023-04-03T06:10:04;101922.38;;;13.84;31.06
59168;BME280;44948;55.046;73.266;2023-04-03T06:13:07;101921.16;;;13.89;31.61
59168;BME280;44948;55.046;73.266;2023-04-03T06:16:12;101924.03;;;14.00;30.68
59168;BME280;44948;55.046;73.266;2023-04-03T06:19:18;101909.84;;;14.17;30.49
59168;BME280;44948;55.046;73.266;2023-04-03T06:22:25;101906.63;;;14.12;30.97
59168;BME280;44948;55.046;73.266;2023-04-03T06:25:28;101910.00;;;13.38;30.96
59168;BME280;44948;55.046;73.266;2023-04-03T06:28:33;101904.91;;;13.35;31.12
59168;BME280;44948;55.046;73.266;2023-04-03T06:31:36;101903.72;;;13.57;30.85
59168;BME280;44948;55.046;73.266;2023-04-03T06:34:38;101907.88;;;13.61;30.33
59168;BME280;44948;55.046;73.266;2023-04-03T06:37:41;101908.13;;;13.40;31.23
59168;BME280;44948;55.046;73.266;2023-04-03T06:40:43;101904.75;;;13.54;31.03
59168;BME280;44948;55.046;73.266;2023-04-03T06:43:46;101902.53;;;13.62;31.44
59168;BME280;44948;55.046;73.266;2023-04-03T06:46:48;101901.72;;;13.76;31.63
59168;BME280;44948;55.046;73.266;2023-04-03T06:49:56;101896.56;;;13.59;31.29
59168;BME280;44948;55.046;73.266;2023-04-03T06:52:59;101885.72;;;13.33;30.80
59168;BME280;44948;55.046;73.266;2023-04-03T06:56:02;101898.81;;;13.03;31.37
59168;BME280;44948;55.046;73.266;2023-04-03T06:59:05;101884.47;;;12.60;31.91
59168;BME280;44948;55.046;73.266;2023-04-03T07:02:13;101893.88;;;12.81;31.92
59168;BME280;44948;55.046;73.266;2023-04-03T07:05:15;101893.63;;;13.02;32.21
59168;BME280;44948;55.046;73.266;2023-04-03T07:08:21;101894.47;;;13.18;31.84
59168;BME280;44948;55.046;73.266;2023-04-03T07:11:25;101889.97;;;13.20;32.43
59168;BME280;44948;55.046;73.266;2023-04-03T07:14:27;101895.31;;;13.34;31.94
59168;BME280;44948;55.046;73.266;2023-04-03T07:17:30;101890.63;;;13.08;31.41
59168;BME280;44948;55.046;73.266;2023-04-03T07:20:33;101891.66;;;12.90;32.93
59168;BME280;44948;55.046;73.266;2023-04-03T07:23:36;101886.66;;;13.01;32.61
59168;BME280;44948;55.046;73.266;2023-04-03T07:26:52;101887.66;;;12.82;32.26
59168;BME280;44948;55.046;73.266;2023-04-03T07:29:55;101883.28;;;12.50;32.13
59168;BME280;44948;55.046;73.266;2023-04-03T07:32:57;101889.19;;;12.38;33.14
59168;BME280;44948;55.046;73.266;2023-04-03T07:36:01;101886.72;;;12.35;33.18
59168;BME280;44948;55.046;73.266;2023-04-03T07:39:03;101883.84;;;12.39;33.50
59168;BME280;44948;55.046;73.266;2023-04-03T07:42:06;101879.47;;;12.22;33.82
59168;BME280;44948;55.046;73.266;2023-04-03T07:45:08;101884.25;;;12.32;34.12
59168;BME280;44948;55.046;73.266;2023-04-03T07:48:11;101882.66;;;12.29;33.78
59168;BME280;44948;55.046;73.266;2023-04-03T07:51:14;101883.97;;;12.20;34.13
59168;BME280;44948;55.046;73.266;2023-04-03T07:54:17;101885.34;;;12.10;34.00
59168;BME280;44948;55.046;73.266;2023-04-03T07:57:19;101877.22;;;12.15;34.26
59168;BME280;44948;55.046;73.266;2023-04-03T08:00:21;101887.19;;;11.91;34.04
59168;BME280;44948;55.046;73.266;2023-04-03T08:03:24;101889.59;;;11.78;35.14
59168;BME280;44948;55.046;73.266;2023-04-03T08:06:38;101886.75;;;11.83;34.99
59168;BME280;44948;55.046;73.266;2023-04-03T08:09:41;101883.88;;;11.70;34.27
59168;BME280;44948;55.046;73.266;2023-04-03T08:12:46;101873.94;;;11.41;34.58
59168;BME280;44948;55.046;73.266;2023-04-03T08:15:48;101873.41;;;11.34;34.17
59168;BME280;44948;55.046;73.266;2023-04-03T08:18:54;101877.50;;;11.40;34.30
59168;BME280;44948;55.046;73.266;2023-04-03T08:21:56;101874.50;;;11.47;34.49
59168;BME280;44948;55.046;73.266;2023-04-03T08:25:00;101861.03;;;11.36;34.22
59168;BME280;44948;55.046;73.266;2023-04-03T12:51:47;101833.41;;;7.94;47.37
59168;BME280;44948;55.046;73.266;2023-04-03T12:54:51;101811.69;;;8.17;48.34
59168;BME280;44948;55.046;73.266;2023-04-03T12:57:53;101826.44;;;8.43;48.39
59168;BME280;44948;55.046;73.266;2023-04-03T13:01:00;101829.03;;;8.67;47.53
59168;BME280;44948;55.046;73.266;2023-04-03T13:04:03;101813.00;;;8.76;47.38
59168;BME280;44948;55.046;73.266;2023-04-03T13:07:40;101817.97;;;8.82;46.45
59168;BME280;44948;55.046;73.266;2023-04-03T13:10:53;101820.47;;;8.85;46.84
59168;BME280;44948;55.046;73.266;2023-04-03T13:13:59;101827.41;;;8.86;46.51
59168;BME280;44948;55.046;73.266;2023-04-03T13:17:16;101823.19;;;8.82;46.37
59168;BME280;44948;55.046;73.266;2023-04-03T13:20:20;101826.31;;;8.46;47.35
59168;BME280;44948;55.046;73.266;2023-04-03T13:23:24;101818.00;;;8.58;46.21
59168;BME280;44948;55.046;73.266;2023-04-03T13:26:37;101826.91;;;8.53;46.55
59168;BME280;44948;55.046;73.266;2023-04-03T13:29:52;101818.00;;;8.35;46.58
59168;BME280;44948;55.046;73.266;2023-04-03T13:32:57;101820.50;;;8.15;46.80
59168;BME280;44948;55.046;73.266;2023-04-03T13:36:04;101824.00;;;7.90;47.67
59168;BME280;44948;55.046;73.266;2023-04-03T13:42:27;101813.91;;;7.53;48.83
59168;BME280;44948;55.046;73.266;2023-04-03T13:45:33;101816.28;;;7.34;49.28
59168;BME280;44948;55.046;73.266;2023-04-03T13:48:44;101816.56;;;7.25;49.18
59168;BME280;44948;55.046;73.266;2023-04-03T13:51:47;101781.13;;;6.92;49.52
59168;BME280;44948;55.046;73.266;2023-04-03T13:54:59;101811.31;;;6.99;49.80
59168;BME280;44948;55.046;73.266;2023-04-03T14:01:20;101818.38;;;6.67;51.02
59168;BME280;44948;55.046;73.266;2023-04-03T14:04:31;101818.91;;;6.49;51.25
59168;BME280;44948;55.046;73.266;2023-04-03T14:07:34;101815.94;;;6.32;51.98
59168;BME280;44948;55.046;73.266;2023-04-03T14:10:37;101819.88;;;6.15;52.58
59168;BME280;44948;55.046;73.266;2023-04-03T14:13:50;101829.72;;;6.04;52.70
59168;BME280;44948;55.046;73.266;2023-04-03T14:16:56;101831.75;;;5.94;53.02
59168;BME280;44948;55.046;73.266;2023-04-03T14:20:00;101827.78;;;5.80;53.81
59168;BME280;44948;55.046;73.266;2023-04-03T14:23:03;101824.75;;;5.62;54.36
59168;BME280;44948;55.046;73.266;2023-04-03T14:26:21;101830.13;;;5.56;54.09
59168;BME280;44948;55.046;73.266;2023-04-03T14:29:32;101837.34;;;5.45;55.00
59168;BME280;44948;55.046;73.266;2023-04-03T14:32:45;101844.47;;;5.37;55.50
59168;BME280;44948;55.046;73.266;2023-04-03T14:35:49;101838.72;;;5.24;56.00
59168;BME280;44948;55.046;73.266;2023-04-03T14:38:54;101836.22;;;5.20;56.42
59168;BME280;44948;55.046;73.266;2023-04-03T14:42:03;101833.88;;;5.09;56.46
59168;BME280;44948;55.046;73.266;2023-04-03T14:45:12;101832.28;;;5.02;56.56
59168;BME280;44948;55.046;73.266;2023-04-03T14:48:23;101833.28;;;4.96;56.45
59168;BME280;44948;55.046;73.266;2023-04-03T14:51:26;101818.75;;;4.86;56.86
59168;BME280;44948;55.046;73.266;2023-04-03T14:54:28;101831.75;;;4.86;56.59
59168;BME280;44948;55.046;73.266;2023-04-03T14:57:31;101827.69;;;4.74;57.06
59168;BME280;44948;55.046;73.266;2023-04-03T15:00:38;101826.94;;;4.68;57.28
59168;BME280;44948;55.046;73.266;2023-04-03T15:03:41;101817.72;;;4.55;57.47
59168;BME280;44948;55.046;73.266;2023-04-03T15:06:44;101819.56;;;4.50;57.73
59168;BME280;44948;55.046;73.266;2023-04-03T15:09:54;101810.28;;;4.38;57.83
59168;BME280;44948;55.046;73.266;2023-04-03T15:13:00;101824.06;;;4.41;57.31
59168;BME280;44948;55.046;73.266;2023-04-03T15:16:02;101815.50;;;4.36;57.93
59168;BME280;44948;55.046;73.266;2023-04-03T15:19:06;101813.91;;;4.29;57.41
59168;BME280;44948;55.046;73.266;2023-04-03T15:22:16;101811.47;;;4.22;57.73
59168;BME280;44948;55.046;73.266;2023-04-03T15:25:19;101817.50;;;4.24;57.47
59168;BME280;44948;55.046;73.266;2023-04-03T15:28:35;101815.84;;;4.18;57.28
59168;BME280;44948;55.046;73.266;2023-04-03T15:31:38;101807.28;;;4.14;57.38
59168;BME280;44948;55.046;73.266;2023-04-03T15:34:50;101811.66;;;4.12;57.39
59168;BME280;44948;55.046;73.266;2023-04-03T15:37:55;101797.84;;;4.10;57.21
59168;BME280;44948;55.046;73.266;2023-04-03T15:41:05;101802.19;;;4.10;57.45
59168;BME280;44948;55.046;73.266;2023-04-03T15:44:08;101810.88;;;4.09;57.60
59168;BME280;44948;55.046;73.266;2023-04-03T15:47:11;101809.25;;;4.02;57.70
59168;BME280;44948;55.046;73.266;2023-04-03T15:50:13;101809.38;;;3.96;57.78
59168;BME280;44948;55.046;73.266;2023-04-03T15:53:22;101801.69;;;3.91;57.65
59168;BME280;44948;55.046;73.266;2023-04-03T15:56:24;101804.31;;;3.90;57.76
59168;BME280;44948;55.046;73.266;2023-04-03T15:59:26;101805.22;;;3.86;57.53
59168;BME280;44948;55.046;73.266;2023-04-03T16:02:36;101806.97;;;3.85;57.65
59168;BME280;44948;55.046;73.266;2023-04-03T16:05:44;101786.50;;;3.71;57.64
59168;BME280;44948;55.046;73.266;2023-04-03T16:08:52;101797.63;;;3.76;57.30
59168;BME280;44948;55.046;73.266;2023-04-03T16:11:58;101796.00;;;3.69;57.25
59168;BME280;44948;55.046;73.266;2023-04-03T16:15:07;101790.13;;;3.61;56.97
59168;BME280;44948;55.046;73.266;2023-04-03T16:18:10;101791.91;;;3.58;56.94
59168;BME280;44948;55.046;73.266;2023-04-03T16:21:14;101791.16;;;3.51;56.90
59168;BME280;44948;55.046;73.266;2023-04-03T16:24:17;101787.84;;;3.43;57.33
59168;BME280;44948;55.046;73.266;2023-04-03T16:27:20;101793.16;;;3.37;57.47
59168;BME280;44948;55.046;73.266;2023-04-03T16:30:34;101787.09;;;3.38;56.89
59168;BME280;44948;55.046;73.266;2023-04-03T16:33:48;101781.09;;;3.33;56.92
59168;BME280;44948;55.046;73.266;2023-04-03T16:36:50;101788.00;;;3.32;57.13
59168;BME280;44948;55.046;73.266;2023-04-03T16:39:56;101787.28;;;3.26;56.68
59168;BME280;44948;55.046;73.266;2023-04-03T16:43:01;101770.94;;;3.19;56.73
59168;BME280;44948;55.046;73.266;2023-04-03T16:46:07;101780.28;;;3.29;56.34
59168;BME280;44948;55.046;73.266;2023-04-03T16:49:15;101782.91;;;3.28;56.53
59168;BME280;44948;55.046;73.266;2023-04-03T16:52:27;101782.97;;;3.25;56.16
59168;BME280;44948;55.046;73.266;2023-04-03T16:55:29;101783.91;;;3.20;56.19
59168;BME280;44948;55.046;73.266;2023-04-03T16:58:32;101771.09;;;3.11;56.55
59168;BME280;44948;55.046;73.266;2023-04-03T17:01:34;101778.00;;;3.11;56.18
59168;BME280;44948;55.046;73.266;2023-04-03T17:08:35;101769.63;;;2.93;56.39
59168;BME280;44948;55.046;73.266;2023-04-03T17:11:47;101767.94;;;2.91;56.49
59168;BME280;44948;55.046;73.266;2023-04-03T17:14:55;101762.78;;;2.91;56.38
59168;BME280;44948;55.046;73.266;2023-04-03T17:17:57;101760.19;;;2.91;56.32
59168;BME280;44948;55.046;73.266;2023-04-03T17:21:01;101756.78;;;2.87;56.03
59168;BME280;44948;55.046;73.266;2023-04-03T19:10:29;101698.63;;;-0.69;62.01
59168;BME280;44948;55.046;73.266;2023-04-03T19:13:32;101696.84;;;-0.40;62.37
59168;BME280;44948;55.046;73.266;2023-04-03T19:16:34;101689.03;;;-0.17;62.39
59168;BME280;44948;55.046;73.266;2023-04-03T19:19:36;101684.66;;;0.05;62.28
59168;BME280;44948;55.046;73.266;2023-04-03T19:22:43;101699.13;;;0.32;62.11
59168;BME280;44948;55.046;73.266;2023-04-03T19:25:46;101690.41;;;0.47;61.38
59168;BME280;44948;55.046;73.266;2023-04-03T19:28:48;101694.66;;;0.60;60.65
59168;BME280;44948;55.046;73.266;2023-04-03T19:32:21;101671.97;;;0.96;59.11
59168;BME280;44948;55.046;73.266;2023-04-03T19:35:26;101670.31;;;0.89;59.65
59168;BME280;44948;55.046;73.266;2023-04-03T19:38:28;101665.19;;;0.86;59.76
59168;BME280;44948;55.046;73.266;2023-04-03T19:41:33;101673.66;;;1.00;59.09
59168;BME280;44948;55.046;73.266;2023-04-03T19:44:36;101661.66;;;0.93;59.38
59168;BME280;44948;55.046;73.266;2023-04-03T19:47:39;101666.88;;;0.90;59.02
59168;BME280;44948;55.046;73.266;2023-04-03T19:50:46;101669.34;;;1.02;58.98
59168;BME280;44948;55.046;73.266;2023-04-03T19:53:59;101667.63;;;1.01;58.51
59168;BME280;44948;55.046;73.266;2023-04-03T19:57:20;101666.16;;;0.71;59.22
59168;BME280;44948;55.046;73.266;2023-04-03T20:00:23;101664.28;;;0.91;58.38
59168;BME280;44948;55.046;73.266;2023-04-03T20:03:25;101658.22;;;0.94;58.12
59168;BME280;44948;55.046;73.266;2023-04-03T20:06:28;101659.03;;;0.97;57.51
59168;BME280;44948;55.046;73.266;2023-04-03T20:09:34;101662.47;;;0.99;57.17
59168;BME280;44948;55.046;73.266;2023-04-03T20:12:37;101662.59;;;0.87;57.42
59168;BME280;44948;55.046;73.266;2023-04-03T20:15:41;101664.25;;;0.93;57.29
59168;BME280;44948;55.046;73.266;2023-04-03T20:18:43;101652.25;;;0.87;57.24
59168;BME280;44948;55.046;73.266;2023-04-03T20:22:21;101655.28;;;1.29;55.57
59168;BME280;44948;55.046;73.266;2023-04-03T20:25:23;101646.09;;;1.03;56.27
59168;BME280;44948;55.046;73.266;2023-04-03T20:28:26;101649.56;;;0.98;56.24
59168;BME280;44948;55.046;73.266;2023-04-03T20:31:30;101657.31;;;0.98;56.11
59168;BME280;44948;55.046;73.266;2023-04-03T20:34:33;101655.66;;;0.92;55.95
59168;BME280;44948;55.046;73.266;2023-04-03T20:37:35;101653.19;;;0.78;56.66
59168;BME280;44948;55.046;73.266;2023-04-03T20:40:39;101648.81;;;0.84;56.13
59168;BME280;44948;55.046;73.266;2023-04-03T20:43:42;101645.38;;;0.83;55.56
59168;BME280;44948;55.046;73.266;2023-04-03T20:47:22;101655.38;;;1.23;54.45
59168;BME280;44948;55.046;73.266;2023-04-03T20:50:25;101654.72;;;0.98;55.01
59168;BME280;44948;55.046;73.266;2023-04-03T20:53:38;101652.25;;;0.87;55.26
59168;BME280;44948;55.046;73.266;2023-04-03T20:57:21;101654.50;;;1.24;53.93
59168;BME280;44948;55.046;73.266;2023-04-03T21:00:23;101651.34;;;0.93;54.70
59168;BME280;44948;55.046;73.266;2023-04-03T21:03:27;101654.03;;;0.79;54.84
59168;BME280;44948;55.046;73.266;2023-04-03T21:20:37;101656.00;;;0.46;55.27
59168;BME280;44948;55.046;73.266;2023-04-03T21:23:39;101654.28;;;0.48;55.14
59168;BME280;44948;55.046;73.266;2023-04-03T21:27:21;101647.97;;;0.81;53.66
59168;BME280;44948;55.046;73.266;2023-04-03T21:30:25;101639.63;;;0.52;54.45
59168;BME280;44948;55.046;73.266;2023-04-03T21:33:27;101653.50;;;0.37;54.65
59168;BME280;44948;55.046;73.266;2023-04-03T21:37:21;101635.19;;;0.69;53.59
59168;BME280;44948;55.046;73.266;2023-04-03T21:40:23;101653.53;;;0.36;54.78
59168;BME280;44948;55.046;73.266;2023-04-03T21:43:30;101643.28;;;0.20;55.08
59168;BME280;44948;55.046;73.266;2023-04-03T21:46:32;101638.19;;;0.08;55.40
59168;BME280;44948;55.046;73.266;2023-04-03T21:49:37;101640.78;;;0.07;55.86
59168;BME280;44948;55.046;73.266;2023-04-03T21:52:52;101640.81;;;0.02;55.34
59168;BME280;44948;55.046;73.266;2023-04-03T21:55:55;101639.97;;;-0.01;55.64
59168;BME280;44948;55.046;73.266;2023-04-03T21:59:08;101633.06;;;-0.01;55.88
59168;BME280;44948;55.046;73.266;2023-04-03T22:02:20;101635.84;;;-0.37;55.75
59168;BME280;44948;55.046;73.266;2023-04-03T22:05:22;101634.91;;;-0.21;55.85
59168;BME280;44948;55.046;73.266;2023-04-03T22:08:25;101626.31;;;-0.23;56.13
59168;BME280;44948;55.046;73.266;2023-04-03T22:11:32;101623.78;;;-0.26;56.34
59168;BME280;44948;55.046;73.266;2023-04-03T22:14:34;101621.22;;;-0.29;56.56
59168;BME280;44948;55.046;73.266;2023-04-03T22:17:37;101625.56;;;-0.42;56.51
59168;BME280;44948;55.046;73.266;2023-04-03T22:20:42;101632.41;;;-0.30;56.50
59168;BME280;44948;55.046;73.266;2023-04-03T22:23:44;101629.81;;;-0.33;56.59
59168;BME280;44948;55.046;73.266;2023-04-03T22:27:23;101641.66;;;0.07;55.53
59168;BME280;44948;55.046;73.266;2023-04-03T22:30:37;101640.06;;;-0.20;55.60
59168;BME280;44948;55.046;73.266;2023-04-03T22:33:41;101647.84;;;-0.29;56.18
59168;BME280;44948;55.046;73.266;2023-04-03T22:37:21;101645.13;;;0.03;55.51
59168;BME280;44948;55.046;73.266;2023-04-03T22:40:23;101652.13;;;-0.23;55.90
59168;BME280;44948;55.046;73.266;2023-04-03T22:43:26;101659.03;;;-0.36;56.19
59168;BME280;44948;55.046;73.266;2023-04-03T22:46:29;101636.78;;;-0.57;56.41